Purfleet, United Kingdom
Current Conditions -  °F | °C
As of 11:50 AM on Friday 31 Oct 2014 (Local Time) from EGLC Reporting Station
Clear Clear  
Wind Chill: 72°   Ceiling: Unl
Heat Index: 72°   Visibility: 6mi
Dew Point: 55°   Wind: 7mph
Humidity: 57%   Direction: 150°SSE
Pressure: 30.03"   Gusts: NA
Location:  51.48°N, 0.24°E
Report Text: EGLC 311150Z 15006KT 110V180 CAVOK 22/13 Q1017
Loading
Personal Weather Stations






























Interactive Weather Map
Tropical Storm Tracking
New forecast layout! Learn more

10-Day Weather Forecast

Advertisements
Track Severe Weather on mobile